Terminal Aerodrome Forecast
Issued by NWS Topeka, KS

Home | Current Version | Previous Version | Text Only | Print | Product List | Glossary Off
Versions: 1 2 3 4 5 6 7 8 9 10 11 12 13 14 15 16 17 18

000
FTUS43 KTOP 210800 AAB
TAFTOP
TAF AMD
KTOP 210804Z 2108/2206 00000KT P6SM MIFG SKC
      TEMPO 2108/2110 1SM BR
     FM211000 00000KT 3SM BR MIFG SKC
      TEMPO 2110/2113 1/2SM FG SCT002
     FM211400 13003KT P6SM SKC=

USA.gov is the U.S. government's official web portal to all federal, state and local government web resources and services.